sensor_id;sensor_type;location;lat;lon;timestamp;P1;durP1;ratioP1;P2;durP2;ratioP2
49860;SDS011;35761;48.826;9.238;2023-05-29T00:00:31;10.68;;;4.97;;
49860;SDS011;35761;48.826;9.238;2023-05-29T00:03:01;8.77;;;4.47;;
49860;SDS011;35761;48.826;9.238;2023-05-29T00:05:34;11.10;;;4.75;;
49860;SDS011;35761;48.826;9.238;2023-05-29T00:08:05;10.15;;;4.57;;
49860;SDS011;35761;48.826;9.238;2023-05-29T00:10:36;12.15;;;4.38;;
49860;SDS011;35761;48.826;9.238;2023-05-29T00:13:07;12.80;;;4.15;;
49860;SDS011;35761;48.826;9.238;2023-05-29T00:15:37;11.15;;;4.68;;
49860;SDS011;35761;48.826;9.238;2023-05-29T00:18:08;8.35;;;4.35;;
49860;SDS011;35761;48.826;9.238;2023-05-29T00:20:41;10.98;;;4.40;;
49860;SDS011;35761;48.826;9.238;2023-05-29T00:23:12;9.98;;;4.70;;
49860;SDS011;35761;48.826;9.238;2023-05-29T00:25:42;10.32;;;4.47;;
49860;SDS011;35761;48.826;9.238;2023-05-29T00:28:13;12.25;;;4.07;;
49860;SDS011;35761;48.826;9.238;2023-05-29T00:30:43;9.13;;;4.50;;
49860;SDS011;35761;48.826;9.238;2023-05-29T00:33:14;12.05;;;4.55;;
49860;SDS011;35761;48.826;9.238;2023-05-29T00:35:48;9.95;;;4.88;;
49860;SDS011;35761;48.826;9.238;2023-05-29T00:38:18;10.82;;;4.40;;
49860;SDS011;35761;48.826;9.238;2023-05-29T00:40:49;11.75;;;4.40;;
49860;SDS011;35761;48.826;9.238;2023-05-29T00:43:20;8.60;;;4.68;;
49860;SDS011;35761;48.826;9.238;2023-05-29T00:45:50;9.73;;;4.00;;
49860;SDS011;35761;48.826;9.238;2023-05-29T00:48:21;10.82;;;4.53;;
49860;SDS011;35761;48.826;9.238;2023-05-29T00:50:54;12.65;;;4.50;;
49860;SDS011;35761;48.826;9.238;2023-05-29T00:53:25;9.65;;;4.07;;
49860;SDS011;35761;48.826;9.238;2023-05-29T00:55:57;8.35;;;4.35;;
49860;SDS011;35761;48.826;9.238;2023-05-29T00:58:29;7.90;;;4.20;;
49860;SDS011;35761;48.826;9.238;2023-05-29T01:00:59;11.60;;;4.45;;
49860;SDS011;35761;48.826;9.238;2023-05-29T01:03:31;8.55;;;4.38;;
49860;SDS011;35761;48.826;9.238;2023-05-29T01:06:05;13.27;;;4.18;;
49860;SDS011;35761;48.826;9.238;2023-05-29T01:08:37;9.85;;;4.32;;
49860;SDS011;35761;48.826;9.238;2023-05-29T01:11:08;11.60;;;4.68;;
49860;SDS011;35761;48.826;9.238;2023-05-29T01:13:59;8.15;;;3.90;;
49860;SDS011;35761;48.826;9.238;2023-05-29T01:16:38;12.40;;;5.05;;
49860;SDS011;35761;48.826;9.238;2023-05-29T01:19:20;11.30;;;4.38;;
49860;SDS011;35761;48.826;9.238;2023-05-29T01:22:12;8.77;;;4.40;;
49860;SDS011;35761;48.826;9.238;2023-05-29T01:24:56;8.30;;;3.78;;
49860;SDS011;35761;48.826;9.238;2023-05-29T01:27:43;7.10;;;4.13;;
49860;SDS011;35761;48.826;9.238;2023-05-29T01:30:16;9.57;;;4.25;;
49860;SDS011;35761;48.826;9.238;2023-05-29T01:32:50;13.63;;;4.88;;
49860;SDS011;35761;48.826;9.238;2023-05-29T01:35:21;11.50;;;3.95;;
49860;SDS011;35761;48.826;9.238;2023-05-29T01:37:54;11.05;;;4.15;;
49860;SDS011;35761;48.826;9.238;2023-05-29T01:40:24;7.90;;;4.30;;
49860;SDS011;35761;48.826;9.238;2023-05-29T01:42:57;9.20;;;4.72;;
49860;SDS011;35761;48.826;9.238;2023-05-29T01:45:28;9.32;;;4.00;;
49860;SDS011;35761;48.826;9.238;2023-05-29T01:47:59;11.18;;;4.07;;
49860;SDS011;35761;48.826;9.238;2023-05-29T01:50:30;8.75;;;4.18;;
49860;SDS011;35761;48.826;9.238;2023-05-29T01:53:01;11.32;;;4.53;;
49860;SDS011;35761;48.826;9.238;2023-05-29T01:55:31;12.57;;;3.90;;
49860;SDS011;35761;48.826;9.238;2023-05-29T01:58:04;9.50;;;3.65;;
49860;SDS011;35761;48.826;9.238;2023-05-29T02:00:37;8.25;;;4.07;;
49860;SDS011;35761;48.826;9.238;2023-05-29T02:03:08;11.85;;;4.50;;
49860;SDS011;35761;48.826;9.238;2023-05-29T02:05:39;8.73;;;4.05;;
49860;SDS011;35761;48.826;9.238;2023-05-29T02:08:10;13.45;;;4.50;;
49860;SDS011;35761;48.826;9.238;2023-05-29T02:10:40;8.93;;;4.03;;
49860;SDS011;35761;48.826;9.238;2023-05-29T02:13:14;8.45;;;4.40;;
49860;SDS011;35761;48.826;9.238;2023-05-29T02:15:44;12.68;;;4.82;;
49860;SDS011;35761;48.826;9.238;2023-05-29T02:18:15;10.32;;;5.22;;
49860;SDS011;35761;48.826;9.238;2023-05-29T02:20:46;9.73;;;5.15;;
49860;SDS011;35761;48.826;9.238;2023-05-29T02:23:21;11.50;;;5.25;;
49860;SDS011;35761;48.826;9.238;2023-05-29T02:25:52;10.05;;;4.53;;
49860;SDS011;35761;48.826;9.238;2023-05-29T02:28:25;10.77;;;5.63;;
49860;SDS011;35761;48.826;9.238;2023-05-29T02:30:55;9.90;;;5.13;;
49860;SDS011;35761;48.826;9.238;2023-05-29T02:33:26;10.63;;;5.18;;
49860;SDS011;35761;48.826;9.238;2023-05-29T02:35:57;9.38;;;5.05;;
49860;SDS011;35761;48.826;9.238;2023-05-29T02:38:27;10.90;;;5.32;;
49860;SDS011;35761;48.826;9.238;2023-05-29T02:40:59;10.80;;;5.32;;
49860;SDS011;35761;48.826;9.238;2023-05-29T02:43:32;15.52;;;5.38;;
49860;SDS011;35761;48.826;9.238;2023-05-29T02:46:02;10.38;;;4.88;;
49860;SDS011;35761;48.826;9.238;2023-05-29T02:48:33;9.13;;;5.22;;
49860;SDS011;35761;48.826;9.238;2023-05-29T02:51:03;12.80;;;5.65;;
49860;SDS011;35761;48.826;9.238;2023-05-29T02:53:34;12.80;;;5.32;;
49860;SDS011;35761;48.826;9.238;2023-05-29T02:56:05;13.35;;;5.68;;
49860;SDS011;35761;48.826;9.238;2023-05-29T02:58:40;12.65;;;5.80;;
49860;SDS011;35761;48.826;9.238;2023-05-29T03:01:13;14.52;;;5.32;;
49860;SDS011;35761;48.826;9.238;2023-05-29T03:03:44;10.70;;;5.20;;
49860;SDS011;35761;48.826;9.238;2023-05-29T03:06:14;14.45;;;5.55;;
49860;SDS011;35761;48.826;9.238;2023-05-29T03:08:45;10.77;;;5.47;;
49860;SDS011;35761;48.826;9.238;2023-05-29T03:11:16;11.10;;;5.90;;
49860;SDS011;35761;48.826;9.238;2023-05-29T03:13:54;13.15;;;5.47;;
49860;SDS011;35761;48.826;9.238;2023-05-29T03:16:24;8.30;;;4.70;;
49860;SDS011;35761;48.826;9.238;2023-05-29T03:18:56;10.55;;;5.10;;
49860;SDS011;35761;48.826;9.238;2023-05-29T03:21:27;13.38;;;6.25;;
49860;SDS011;35761;48.826;9.238;2023-05-29T03:23:58;11.30;;;5.65;;
49860;SDS011;35761;48.826;9.238;2023-05-29T03:26:30;15.95;;;5.47;;
49860;SDS011;35761;48.826;9.238;2023-05-29T03:29:03;12.35;;;5.22;;
49860;SDS011;35761;48.826;9.238;2023-05-29T03:31:34;16.27;;;5.88;;
49860;SDS011;35761;48.826;9.238;2023-05-29T03:34:05;12.27;;;5.82;;
49860;SDS011;35761;48.826;9.238;2023-05-29T03:36:41;13.73;;;5.32;;
49860;SDS011;35761;48.826;9.238;2023-05-29T03:39:13;10.57;;;5.47;;
49860;SDS011;35761;48.826;9.238;2023-05-29T03:41:45;11.20;;;5.57;;
49860;SDS011;35761;48.826;9.238;2023-05-29T03:44:19;10.40;;;5.50;;
49860;SDS011;35761;48.826;9.238;2023-05-29T03:46:50;14.20;;;5.65;;
49860;SDS011;35761;48.826;9.238;2023-05-29T03:49:23;11.15;;;5.05;;
49860;SDS011;35761;48.826;9.238;2023-05-29T03:51:53;16.42;;;6.60;;
49860;SDS011;35761;48.826;9.238;2023-05-29T03:54:24;13.32;;;6.32;;
49860;SDS011;35761;48.826;9.238;2023-05-29T03:56:55;16.13;;;6.28;;
49860;SDS011;35761;48.826;9.238;2023-05-29T03:59:29;13.32;;;5.07;;
49860;SDS011;35761;48.826;9.238;2023-05-29T04:02:00;10.52;;;5.40;;
49860;SDS011;35761;48.826;9.238;2023-05-29T04:04:30;13.77;;;5.60;;
49860;SDS011;35761;48.826;9.238;2023-05-29T04:07:02;12.73;;;5.55;;
49860;SDS011;35761;48.826;9.238;2023-05-29T04:09:33;11.43;;;5.63;;
49860;SDS011;35761;48.826;9.238;2023-05-29T04:12:05;13.82;;;5.40;;
49860;SDS011;35761;48.826;9.238;2023-05-29T04:14:39;11.32;;;5.63;;
49860;SDS011;35761;48.826;9.238;2023-05-29T04:17:11;12.52;;;4.93;;
49860;SDS011;35761;48.826;9.238;2023-05-29T04:19:42;15.07;;;5.70;;
49860;SDS011;35761;48.826;9.238;2023-05-29T04:22:13;11.60;;;5.57;;
49860;SDS011;35761;48.826;9.238;2023-05-29T04:24:44;12.25;;;6.38;;
49860;SDS011;35761;48.826;9.238;2023-05-29T04:27:16;11.00;;;5.47;;
49860;SDS011;35761;48.826;9.238;2023-05-29T04:29:49;13.38;;;5.68;;
49860;SDS011;35761;48.826;9.238;2023-05-29T04:32:20;9.20;;;5.43;;
49860;SDS011;35761;48.826;9.238;2023-05-29T04:34:51;12.15;;;5.93;;
49860;SDS011;35761;48.826;9.238;2023-05-29T04:37:21;11.55;;;5.22;;
49860;SDS011;35761;48.826;9.238;2023-05-29T04:39:57;13.13;;;5.07;;
49860;SDS011;35761;48.826;9.238;2023-05-29T04:42:35;10.38;;;5.97;;
49860;SDS011;35761;48.826;9.238;2023-05-29T04:45:09;12.20;;;5.75;;
49860;SDS011;35761;48.826;9.238;2023-05-29T04:47:40;12.52;;;6.40;;
49860;SDS011;35761;48.826;9.238;2023-05-29T04:50:12;14.27;;;7.40;;
49860;SDS011;35761;48.826;9.238;2023-05-29T04:52:44;17.70;;;6.35;;
49860;SDS011;35761;48.826;9.238;2023-05-29T04:55:14;12.15;;;5.50;;
49860;SDS011;35761;48.826;9.238;2023-05-29T04:57:45;8.98;;;5.07;;
49860;SDS011;35761;48.826;9.238;2023-05-29T05:00:18;10.63;;;5.13;;
49860;SDS011;35761;48.826;9.238;2023-05-29T05:02:50;12.40;;;5.82;;
49860;SDS011;35761;48.826;9.238;2023-05-29T05:05:20;11.63;;;5.57;;
49860;SDS011;35761;48.826;9.238;2023-05-29T05:07:56;10.68;;;5.78;;
49860;SDS011;35761;48.826;9.238;2023-05-29T05:10:27;12.10;;;5.47;;
49860;SDS011;35761;48.826;9.238;2023-05-29T05:12:57;11.90;;;5.90;;
49860;SDS011;35761;48.826;9.238;2023-05-29T05:15:33;10.00;;;5.22;;
49860;SDS011;35761;48.826;9.238;2023-05-29T05:18:03;12.40;;;5.60;;
49860;SDS011;35761;48.826;9.238;2023-05-29T05:20:35;9.52;;;5.32;;
49860;SDS011;35761;48.826;9.238;2023-05-29T05:23:06;12.40;;;5.38;;
49860;SDS011;35761;48.826;9.238;2023-05-29T05:25:37;13.10;;;5.18;;
49860;SDS011;35761;48.826;9.238;2023-05-29T05:28:08;12.63;;;7.03;;
49860;SDS011;35761;48.826;9.238;2023-05-29T05:30:42;14.48;;;5.40;;
49860;SDS011;35761;48.826;9.238;2023-05-29T05:33:13;11.43;;;6.07;;
49860;SDS011;35761;48.826;9.238;2023-05-29T05:35:43;11.15;;;5.80;;
49860;SDS011;35761;48.826;9.238;2023-05-29T05:38:15;10.20;;;5.53;;
49860;SDS011;35761;48.826;9.238;2023-05-29T05:40:46;10.57;;;5.10;;
49860;SDS011;35761;48.826;9.238;2023-05-29T05:43:24;9.00;;;5.30;;
49860;SDS011;35761;48.826;9.238;2023-05-29T05:46:14;9.93;;;5.05;;
49860;SDS011;35761;48.826;9.238;2023-05-29T05:48:48;11.57;;;5.22;;
49860;SDS011;35761;48.826;9.238;2023-05-29T05:51:18;12.95;;;5.82;;
49860;SDS011;35761;48.826;9.238;2023-05-29T05:53:50;14.05;;;5.18;;
49860;SDS011;35761;48.826;9.238;2023-05-29T05:56:20;11.25;;;5.07;;
49860;SDS011;35761;48.826;9.238;2023-05-29T05:58:52;10.88;;;5.20;;
49860;SDS011;35761;48.826;9.238;2023-05-29T06:01:25;10.32;;;5.07;;
49860;SDS011;35761;48.826;9.238;2023-05-29T06:03:57;16.98;;;5.35;;
49860;SDS011;35761;48.826;9.238;2023-05-29T06:06:30;12.07;;;4.85;;
49860;SDS011;35761;48.826;9.238;2023-05-29T06:09:01;9.32;;;4.97;;
49860;SDS011;35761;48.826;9.238;2023-05-29T06:11:32;14.07;;;5.22;;
49860;SDS011;35761;48.826;9.238;2023-05-29T06:14:02;9.85;;;4.97;;
49860;SDS011;35761;48.826;9.238;2023-05-29T06:16:35;9.27;;;4.90;;
49860;SDS011;35761;48.826;9.238;2023-05-29T06:19:07;10.65;;;5.13;;
49860;SDS011;35761;48.826;9.238;2023-05-29T06:21:51;7.95;;;4.68;;
49860;SDS011;35761;48.826;9.238;2023-05-29T06:24:21;12.30;;;5.30;;
49860;SDS011;35761;48.826;9.238;2023-05-29T06:26:54;14.27;;;4.97;;
49860;SDS011;35761;48.826;9.238;2023-05-29T06:29:25;10.30;;;5.13;;
49860;SDS011;35761;48.826;9.238;2023-05-29T06:31:58;13.30;;;5.20;;
49860;SDS011;35761;48.826;9.238;2023-05-29T06:34:28;9.93;;;5.13;;
49860;SDS011;35761;48.826;9.238;2023-05-29T06:36:59;14.20;;;4.70;;
49860;SDS011;35761;48.826;9.238;2023-05-29T06:39:29;10.38;;;5.05;;
49860;SDS011;35761;48.826;9.238;2023-05-29T06:42:00;21.35;;;5.32;;
49860;SDS011;35761;48.826;9.238;2023-05-29T06:44:40;11.88;;;4.82;;
49860;SDS011;35761;48.826;9.238;2023-05-29T06:47:13;11.52;;;5.25;;
49860;SDS011;35761;48.826;9.238;2023-05-29T06:49:44;11.52;;;5.00;;
49860;SDS011;35761;48.826;9.238;2023-05-29T06:52:15;9.63;;;4.43;;
49860;SDS011;35761;48.826;9.238;2023-05-29T06:55:08;12.65;;;5.20;;
49860;SDS011;35761;48.826;9.238;2023-05-29T06:57:39;11.20;;;5.15;;
49860;SDS011;35761;48.826;9.238;2023-05-29T07:00:10;14.48;;;4.72;;
49860;SDS011;35761;48.826;9.238;2023-05-29T07:02:55;13.65;;;5.20;;
49860;SDS011;35761;48.826;9.238;2023-05-29T07:05:26;12.77;;;4.78;;
49860;SDS011;35761;48.826;9.238;2023-05-29T07:07:57;10.20;;;4.20;;
49860;SDS011;35761;48.826;9.238;2023-05-29T07:10:29;7.25;;;4.22;;
49860;SDS011;35761;48.826;9.238;2023-05-29T07:12:59;8.60;;;4.28;;
49860;SDS011;35761;48.826;9.238;2023-05-29T07:15:30;10.75;;;4.47;;
49860;SDS011;35761;48.826;9.238;2023-05-29T07:18:09;10.95;;;5.03;;
49860;SDS011;35761;48.826;9.238;2023-05-29T07:20:41;11.10;;;4.40;;
49860;SDS011;35761;48.826;9.238;2023-05-29T07:23:15;11.60;;;4.72;;
49860;SDS011;35761;48.826;9.238;2023-05-29T07:25:46;9.88;;;4.90;;
49860;SDS011;35761;48.826;9.238;2023-05-29T07:28:16;11.63;;;4.68;;
49860;SDS011;35761;48.826;9.238;2023-05-29T07:30:49;11.93;;;4.00;;
49860;SDS011;35761;48.826;9.238;2023-05-29T07:33:22;14.52;;;4.50;;
49860;SDS011;35761;48.826;9.238;2023-05-29T07:35:55;12.80;;;4.40;;
49860;SDS011;35761;48.826;9.238;2023-05-29T07:38:26;10.45;;;4.45;;
49860;SDS011;35761;48.826;9.238;2023-05-29T07:40:57;8.63;;;4.20;;
49860;SDS011;35761;48.826;9.238;2023-05-29T07:43:32;10.70;;;4.30;;
49860;SDS011;35761;48.826;9.238;2023-05-29T07:46:05;12.70;;;4.82;;
49860;SDS011;35761;48.826;9.238;2023-05-29T07:48:41;9.07;;;4.18;;
49860;SDS011;35761;48.826;9.238;2023-05-29T07:51:13;9.93;;;4.10;;
49860;SDS011;35761;48.826;9.238;2023-05-29T07:53:46;7.43;;;3.90;;
49860;SDS011;35761;48.826;9.238;2023-05-29T07:56:17;8.65;;;4.18;;
49860;SDS011;35761;48.826;9.238;2023-05-29T07:58:48;9.43;;;4.30;;
49860;SDS011;35761;48.826;9.238;2023-05-29T08:01:20;11.35;;;4.63;;
49860;SDS011;35761;48.826;9.238;2023-05-29T08:03:53;9.40;;;4.40;;
49860;SDS011;35761;48.826;9.238;2023-05-29T08:06:31;11.65;;;4.40;;
49860;SDS011;35761;48.826;9.238;2023-05-29T08:09:03;9.93;;;4.50;;
49860;SDS011;35761;48.826;9.238;2023-05-29T08:11:34;11.30;;;4.65;;
49860;SDS011;35761;48.826;9.238;2023-05-29T08:14:05;8.30;;;4.70;;
49860;SDS011;35761;48.826;9.238;2023-05-29T08:16:37;10.98;;;5.78;;
49860;SDS011;35761;48.826;9.238;2023-05-29T08:19:10;8.38;;;5.05;;
49860;SDS011;35761;48.826;9.238;2023-05-29T08:21:41;9.80;;;4.78;;
49860;SDS011;35761;48.826;9.238;2023-05-29T08:24:11;8.35;;;4.47;;
49860;SDS011;35761;48.826;9.238;2023-05-29T08:26:42;7.90;;;4.25;;
49860;SDS011;35761;48.826;9.238;2023-05-29T08:29:12;11.50;;;4.53;;
49860;SDS011;35761;48.826;9.238;2023-05-29T08:31:43;10.43;;;4.60;;
49860;SDS011;35761;48.826;9.238;2023-05-29T08:34:16;11.35;;;4.93;;
49860;SDS011;35761;48.826;9.238;2023-05-29T08:36:49;8.60;;;4.30;;
49860;SDS011;35761;48.826;9.238;2023-05-29T08:39:21;8.77;;;3.60;;
49860;SDS011;35761;48.826;9.238;2023-05-29T08:41:54;11.00;;;4.72;;
49860;SDS011;35761;48.826;9.238;2023-05-29T08:44:32;11.93;;;5.20;;
49860;SDS011;35761;48.826;9.238;2023-05-29T08:47:05;8.52;;;4.50;;
49860;SDS011;35761;48.826;9.238;2023-05-29T08:49:43;14.23;;;4.55;;
49860;SDS011;35761;48.826;9.238;2023-05-29T08:52:22;9.93;;;4.82;;
49860;SDS011;35761;48.826;9.238;2023-05-29T08:54:54;12.60;;;4.72;;
49860;SDS011;35761;48.826;9.238;2023-05-29T08:57:28;11.00;;;4.72;;
49860;SDS011;35761;48.826;9.238;2023-05-29T08:59:59;9.07;;;4.20;;
49860;SDS011;35761;48.826;9.238;2023-05-29T09:02:32;8.95;;;4.35;;
49860;SDS011;35761;48.826;9.238;2023-05-29T09:05:07;10.55;;;4.50;;
49860;SDS011;35761;48.826;9.238;2023-05-29T09:07:39;12.48;;;3.95;;
49860;SDS011;35761;48.826;9.238;2023-05-29T09:10:10;9.15;;;4.43;;
49860;SDS011;35761;48.826;9.238;2023-05-29T09:12:42;10.57;;;5.45;;
49860;SDS011;35761;48.826;9.238;2023-05-29T09:15:19;10.63;;;4.03;;
49860;SDS011;35761;48.826;9.238;2023-05-29T09:17:51;8.15;;;4.28;;
49860;SDS011;35761;48.826;9.238;2023-05-29T09:20:26;9.82;;;4.32;;
49860;SDS011;35761;48.826;9.238;2023-05-29T09:22:57;7.53;;;4.07;;
49860;SDS011;35761;48.826;9.238;2023-05-29T09:25:31;8.98;;;4.13;;
49860;SDS011;35761;48.826;9.238;2023-05-29T09:28:04;7.88;;;4.10;;
49860;SDS011;35761;48.826;9.238;2023-05-29T09:30:37;12.65;;;3.80;;
49860;SDS011;35761;48.826;9.238;2023-05-29T09:33:09;11.25;;;4.43;;
49860;SDS011;35761;48.826;9.238;2023-05-29T09:35:44;10.82;;;4.32;;
49860;SDS011;35761;48.826;9.238;2023-05-29T09:38:17;11.43;;;4.63;;
49860;SDS011;35761;48.826;9.238;2023-05-29T09:41:09;10.02;;;4.55;;
49860;SDS011;35761;48.826;9.238;2023-05-29T09:43:39;9.15;;;4.70;;
49860;SDS011;35761;48.826;9.238;2023-05-29T09:46:14;11.13;;;5.28;;
49860;SDS011;35761;48.826;9.238;2023-05-29T09:48:47;9.43;;;4.22;;
49860;SDS011;35761;48.826;9.238;2023-05-29T09:51:21;9.63;;;4.55;;
49860;SDS011;35761;48.826;9.238;2023-05-29T09:53:52;8.85;;;4.35;;
49860;SDS011;35761;48.826;9.238;2023-05-29T09:56:27;9.57;;;4.35;;
49860;SDS011;35761;48.826;9.238;2023-05-29T09:58:59;14.50;;;3.60;;
49860;SDS011;35761;48.826;9.238;2023-05-29T10:01:30;10.32;;;4.40;;
49860;SDS011;35761;48.826;9.238;2023-05-29T10:04:01;8.65;;;4.28;;
49860;SDS011;35761;48.826;9.238;2023-05-29T10:06:35;12.73;;;3.95;;
49860;SDS011;35761;48.826;9.238;2023-05-29T10:09:08;8.57;;;3.80;;
49860;SDS011;35761;48.826;9.238;2023-05-29T10:11:42;11.73;;;3.75;;
49860;SDS011;35761;48.826;9.238;2023-05-29T10:14:14;9.95;;;4.25;;
49860;SDS011;35761;48.826;9.238;2023-05-29T10:16:49;11.93;;;5.00;;
49860;SDS011;35761;48.826;9.238;2023-05-29T10:19:24;22.98;;;5.47;;
49860;SDS011;35761;48.826;9.238;2023-05-29T10:22:02;16.17;;;5.43;;
49860;SDS011;35761;48.826;9.238;2023-05-29T10:24:35;19.23;;;6.03;;
49860;SDS011;35761;48.826;9.238;2023-05-29T10:27:07;8.77;;;4.30;;
49860;SDS011;35761;48.826;9.238;2023-05-29T10:29:39;29.45;;;5.93;;
49860;SDS011;35761;48.826;9.238;2023-05-29T10:32:19;20.77;;;6.22;;
49860;SDS011;35761;48.826;9.238;2023-05-29T10:34:55;24.38;;;7.32;;
49860;SDS011;35761;48.826;9.238;2023-05-29T10:37:39;17.88;;;5.43;;
49860;SDS011;35761;48.826;9.238;2023-05-29T10:40:15;18.35;;;4.63;;
49860;SDS011;35761;48.826;9.238;2023-05-29T10:42:52;8.18;;;3.78;;
49860;SDS011;35761;48.826;9.238;2023-05-29T10:51:24;9.10;;;3.83;;
49860;SDS011;35761;48.826;9.238;2023-05-29T10:54:00;9.35;;;4.53;;
49860;SDS011;35761;48.826;9.238;2023-05-29T10:56:31;6.80;;;3.58;;
49860;SDS011;35761;48.826;9.238;2023-05-29T10:59:01;8.48;;;3.95;;
49860;SDS011;35761;48.826;9.238;2023-05-29T11:01:32;12.98;;;3.78;;
49860;SDS011;35761;48.826;9.238;2023-05-29T11:06:59;8.32;;;3.70;;
49860;SDS011;35761;48.826;9.238;2023-05-29T11:09:36;10.18;;;3.65;;
49860;SDS011;35761;48.826;9.238;2023-05-29T11:12:11;10.60;;;4.45;;
49860;SDS011;35761;48.826;9.238;2023-05-29T11:15:03;11.10;;;3.97;;
49860;SDS011;35761;48.826;9.238;2023-05-29T11:17:43;10.18;;;4.45;;
49860;SDS011;35761;48.826;9.238;2023-05-29T11:20:24;12.40;;;4.13;;
49860;SDS011;35761;48.826;9.238;2023-05-29T11:23:06;11.80;;;3.92;;
49860;SDS011;35761;48.826;9.238;2023-05-29T11:25:42;10.95;;;4.50;;
49860;SDS011;35761;48.826;9.238;2023-05-29T11:28:14;8.63;;;3.95;;
49860;SDS011;35761;48.826;9.238;2023-05-29T11:30:45;8.23;;;4.40;;
49860;SDS011;35761;48.826;9.238;2023-05-29T11:33:23;14.05;;;4.60;;
49860;SDS011;35761;48.826;9.238;2023-05-29T11:35:56;8.15;;;4.35;;
49860;SDS011;35761;48.826;9.238;2023-05-29T11:38:28;8.80;;;3.90;;
49860;SDS011;35761;48.826;9.238;2023-05-29T11:41:01;9.65;;;4.75;;
49860;SDS011;35761;48.826;9.238;2023-05-29T11:43:32;8.10;;;4.53;;
49860;SDS011;35761;48.826;9.238;2023-05-29T11:46:13;12.75;;;5.00;;
49860;SDS011;35761;48.826;9.238;2023-05-29T11:48:48;8.55;;;4.20;;
49860;SDS011;35761;48.826;9.238;2023-05-29T11:51:19;6.43;;;3.92;;
49860;SDS011;35761;48.826;9.238;2023-05-29T11:53:49;9.43;;;4.10;;
49860;SDS011;35761;48.826;9.238;2023-05-29T11:56:29;7.95;;;3.95;;
49860;SDS011;35761;48.826;9.238;2023-05-29T11:58:59;6.15;;;3.60;;
49860;SDS011;35761;48.826;9.238;2023-05-29T12:01:34;5.40;;;3.38;;
49860;SDS011;35761;48.826;9.238;2023-05-29T12:04:13;6.05;;;3.17;;
49860;SDS011;35761;48.826;9.238;2023-05-29T12:06:45;9.32;;;3.92;;
49860;SDS011;35761;48.826;9.238;2023-05-29T12:09:24;7.72;;;3.10;;
49860;SDS011;35761;48.826;9.238;2023-05-29T12:12:03;6.20;;;3.10;;
49860;SDS011;35761;48.826;9.238;2023-05-29T12:14:35;11.23;;;3.28;;
49860;SDS011;35761;48.826;9.238;2023-05-29T12:17:05;6.35;;;2.90;;
49860;SDS011;35761;48.826;9.238;2023-05-29T12:19:37;4.50;;;2.78;;
49860;SDS011;35761;48.826;9.238;2023-05-29T12:22:07;11.27;;;3.28;;
49860;SDS011;35761;48.826;9.238;2023-05-29T12:24:38;13.48;;;3.22;;
49860;SDS011;35761;48.826;9.238;2023-05-29T12:27:12;16.35;;;3.38;;
49860;SDS011;35761;48.826;9.238;2023-05-29T12:29:43;8.88;;;3.03;;
49860;SDS011;35761;48.826;9.238;2023-05-29T12:32:13;5.82;;;3.00;;
49860;SDS011;35761;48.826;9.238;2023-05-29T12:34:48;6.07;;;2.97;;
49860;SDS011;35761;48.826;9.238;2023-05-29T12:37:20;7.30;;;3.38;;
49860;SDS011;35761;48.826;9.238;2023-05-29T12:42:53;8.73;;;3.55;;
49860;SDS011;35761;48.826;9.238;2023-05-29T12:45:26;8.75;;;3.13;;
49860;SDS011;35761;48.826;9.238;2023-05-29T12:47:58;8.77;;;3.40;;
49860;SDS011;35761;48.826;9.238;2023-05-29T12:50:31;11.27;;;3.40;;
49860;SDS011;35761;48.826;9.238;2023-05-29T12:53:04;6.10;;;3.30;;
49860;SDS011;35761;48.826;9.238;2023-05-29T12:55:36;7.20;;;3.72;;
49860;SDS011;35761;48.826;9.238;2023-05-29T12:58:11;11.80;;;3.25;;
49860;SDS011;35761;48.826;9.238;2023-05-29T13:00:45;7.93;;;3.72;;
49860;SDS011;35761;48.826;9.238;2023-05-29T13:03:15;7.50;;;3.30;;
49860;SDS011;35761;48.826;9.238;2023-05-29T13:05:47;6.75;;;3.22;;
49860;SDS011;35761;48.826;9.238;2023-05-29T13:08:18;3.97;;;2.72;;
49860;SDS011;35761;48.826;9.238;2023-05-29T13:10:49;8.02;;;3.50;;
49860;SDS011;35761;48.826;9.238;2023-05-29T13:13:23;5.70;;;3.03;;
49860;SDS011;35761;48.826;9.238;2023-05-29T13:15:53;6.72;;;2.80;;
49860;SDS011;35761;48.826;9.238;2023-05-29T13:18:24;4.78;;;3.33;;
49860;SDS011;35761;48.826;9.238;2023-05-29T13:20:55;6.82;;;3.80;;
49860;SDS011;35761;48.826;9.238;2023-05-29T13:23:26;5.95;;;3.58;;
49860;SDS011;35761;48.826;9.238;2023-05-29T13:25:56;8.57;;;3.13;;
49860;SDS011;35761;48.826;9.238;2023-05-29T13:28:29;5.35;;;3.00;;
49860;SDS011;35761;48.826;9.238;2023-05-29T13:31:00;7.88;;;3.28;;
49860;SDS011;35761;48.826;9.238;2023-05-29T13:33:31;6.90;;;3.15;;
49860;SDS011;35761;48.826;9.238;2023-05-29T13:36:01;4.93;;;2.67;;
49860;SDS011;35761;48.826;9.238;2023-05-29T13:38:32;8.68;;;3.42;;
49860;SDS011;35761;48.826;9.238;2023-05-29T13:41:03;5.38;;;3.00;;
49860;SDS011;35761;48.826;9.238;2023-05-29T13:43:36;7.43;;;3.10;;
49860;SDS011;35761;48.826;9.238;2023-05-29T13:46:11;10.27;;;2.83;;
49860;SDS011;35761;48.826;9.238;2023-05-29T13:48:42;6.68;;;2.90;;
49860;SDS011;35761;48.826;9.238;2023-05-29T13:51:13;9.05;;;3.45;;
49860;SDS011;35761;48.826;9.238;2023-05-29T13:53:44;5.18;;;3.10;;
49860;SDS011;35761;48.826;9.238;2023-05-29T13:56:14;8.75;;;3.10;;
49860;SDS011;35761;48.826;9.238;2023-05-29T13:58:47;4.22;;;2.72;;
49860;SDS011;35761;48.826;9.238;2023-05-29T14:01:18;3.70;;;2.85;;
49860;SDS011;35761;48.826;9.238;2023-05-29T14:03:51;6.88;;;3.20;;
49860;SDS011;35761;48.826;9.238;2023-05-29T14:06:21;8.88;;;3.08;;
49860;SDS011;35761;48.826;9.238;2023-05-29T14:08:52;4.68;;;2.58;;
49860;SDS011;35761;48.826;9.238;2023-05-29T14:11:23;4.65;;;2.80;;
49860;SDS011;35761;48.826;9.238;2023-05-29T14:13:56;4.95;;;3.03;;
49860;SDS011;35761;48.826;9.238;2023-05-29T14:16:26;6.32;;;2.85;;
49860;SDS011;35761;48.826;9.238;2023-05-29T14:18:57;3.72;;;2.80;;
49860;SDS011;35761;48.826;9.238;2023-05-29T14:21:28;11.25;;;2.83;;
49860;SDS011;35761;48.826;9.238;2023-05-29T14:23:59;5.22;;;3.00;;
49860;SDS011;35761;48.826;9.238;2023-05-29T14:26:29;8.85;;;2.63;;
49860;SDS011;35761;48.826;9.238;2023-05-29T14:29:03;4.75;;;2.97;;
49860;SDS011;35761;48.826;9.238;2023-05-29T14:31:40;5.88;;;3.08;;
49860;SDS011;35761;48.826;9.238;2023-05-29T14:34:12;6.53;;;2.80;;
49860;SDS011;35761;48.826;9.238;2023-05-29T14:36:44;6.25;;;2.92;;
49860;SDS011;35761;48.826;9.238;2023-05-29T14:39:17;6.82;;;2.90;;
49860;SDS011;35761;48.826;9.238;2023-05-29T14:41:48;4.80;;;2.83;;
49860;SDS011;35761;48.826;9.238;2023-05-29T14:44:21;7.68;;;3.10;;
49860;SDS011;35761;48.826;9.238;2023-05-29T14:46:52;6.10;;;2.90;;
49860;SDS011;35761;48.826;9.238;2023-05-29T14:49:22;6.85;;;2.78;;
49860;SDS011;35761;48.826;9.238;2023-05-29T14:51:56;4.97;;;2.80;;
49860;SDS011;35761;48.826;9.238;2023-05-29T14:54:26;4.78;;;3.10;;
49860;SDS011;35761;48.826;9.238;2023-05-29T14:56:57;6.57;;;2.70;;
49860;SDS011;35761;48.826;9.238;2023-05-29T14:59:30;11.00;;;2.90;;
49860;SDS011;35761;48.826;9.238;2023-05-29T15:02:01;5.65;;;2.70;;
49860;SDS011;35761;48.826;9.238;2023-05-29T15:04:31;5.95;;;2.63;;
49860;SDS011;35761;48.826;9.238;2023-05-29T15:07:02;4.75;;;2.40;;
49860;SDS011;35761;48.826;9.238;2023-05-29T15:09:33;7.55;;;2.70;;
49860;SDS011;35761;48.826;9.238;2023-05-29T15:12:04;6.38;;;2.53;;
49860;SDS011;35761;48.826;9.238;2023-05-29T15:14:38;3.88;;;2.53;;
49860;SDS011;35761;48.826;9.238;2023-05-29T15:17:09;6.23;;;2.90;;
49860;SDS011;35761;48.826;9.238;2023-05-29T15:19:39;4.93;;;2.58;;
49860;SDS011;35761;48.826;9.238;2023-05-29T15:22:10;4.15;;;2.40;;
49860;SDS011;35761;48.826;9.238;2023-05-29T15:24:40;5.97;;;2.90;;